sensor_id;sensor_type;location;lat;lon;timestamp;P1;durP1;ratioP1;P2;durP2;ratioP2
70545;SDS011;58098;51.680;5.134;2022-07-24T00:01:24;16.20;;;8.70;;
70545;SDS011;58098;51.680;5.134;2022-07-24T00:03:50;10.37;;;8.20;;
70545;SDS011;58098;51.680;5.134;2022-07-24T00:06:15;13.60;;;8.47;;
70545;SDS011;58098;51.680;5.134;2022-07-24T00:08:40;13.43;;;9.53;;
70545;SDS011;58098;51.680;5.134;2022-07-24T00:11:05;14.77;;;9.57;;
70545;SDS011;58098;51.680;5.134;2022-07-24T00:13:31;11.83;;;9.30;;
70545;SDS011;58098;51.680;5.134;2022-07-24T00:15:56;12.97;;;9.90;;
70545;SDS011;58098;51.680;5.134;2022-07-24T00:18:21;15.47;;;9.83;;
70545;SDS011;58098;51.680;5.134;2022-07-24T00:20:46;11.90;;;8.57;;
70545;SDS011;58098;51.680;5.134;2022-07-24T00:23:12;10.82;;;8.35;;
70545;SDS011;58098;51.680;5.134;2022-07-24T00:25:37;11.80;;;9.03;;
70545;SDS011;58098;51.680;5.134;2022-07-24T00:28:02;11.10;;;8.60;;
70545;SDS011;58098;51.680;5.134;2022-07-24T00:30:27;17.73;;;8.57;;
70545;SDS011;58098;51.680;5.134;2022-07-24T00:32:52;12.97;;;8.23;;
70545;SDS011;58098;51.680;5.134;2022-07-24T00:35:17;10.10;;;8.20;;
70545;SDS011;58098;51.680;5.134;2022-07-24T00:37:43;11.23;;;8.57;;
70545;SDS011;58098;51.680;5.134;2022-07-24T00:40:08;10.37;;;8.90;;
70545;SDS011;58098;51.680;5.134;2022-07-24T00:42:33;12.70;;;9.03;;
70545;SDS011;58098;51.680;5.134;2022-07-24T00:44:59;12.97;;;8.93;;
70545;SDS011;58098;51.680;5.134;2022-07-24T00:47:24;13.47;;;9.87;;
70545;SDS011;58098;51.680;5.134;2022-07-24T00:49:49;12.93;;;9.67;;
70545;SDS011;58098;51.680;5.134;2022-07-24T00:52:14;14.97;;;9.80;;
70545;SDS011;58098;51.680;5.134;2022-07-24T00:54:39;12.43;;;9.83;;
70545;SDS011;58098;51.680;5.134;2022-07-24T00:57:05;14.02;;;10.25;;
70545;SDS011;58098;51.680;5.134;2022-07-24T00:59:30;13.77;;;10.30;;
70545;SDS011;58098;51.680;5.134;2022-07-24T01:01:55;13.37;;;9.80;;
70545;SDS011;58098;51.680;5.134;2022-07-24T01:04:21;14.57;;;10.23;;
70545;SDS011;58098;51.680;5.134;2022-07-24T01:06:46;14.87;;;10.37;;
70545;SDS011;58098;51.680;5.134;2022-07-24T01:09:12;13.38;;;10.18;;
70545;SDS011;58098;51.680;5.134;2022-07-24T01:11:38;16.87;;;11.13;;
70545;SDS011;58098;51.680;5.134;2022-07-24T01:14:03;15.52;;;10.40;;
70545;SDS011;58098;51.680;5.134;2022-07-24T01:16:28;14.00;;;10.27;;
70545;SDS011;58098;51.680;5.134;2022-07-24T01:18:53;12.53;;;9.63;;
70545;SDS011;58098;51.680;5.134;2022-07-24T01:21:19;15.07;;;11.13;;
70545;SDS011;58098;51.680;5.134;2022-07-24T01:23:44;15.93;;;10.33;;
70545;SDS011;58098;51.680;5.134;2022-07-24T01:26:09;14.80;;;10.03;;
70545;SDS011;58098;51.680;5.134;2022-07-24T01:28:35;16.23;;;10.23;;
70545;SDS011;58098;51.680;5.134;2022-07-24T01:31:01;13.63;;;10.35;;
70545;SDS011;58098;51.680;5.134;2022-07-24T01:33:26;14.13;;;10.37;;
70545;SDS011;58098;51.680;5.134;2022-07-24T01:35:52;14.93;;;10.57;;
70545;SDS011;58098;51.680;5.134;2022-07-24T01:38:17;15.23;;;11.13;;
70545;SDS011;58098;51.680;5.134;2022-07-24T01:40:43;16.00;;;11.10;;
70545;SDS011;58098;51.680;5.134;2022-07-24T01:43:08;13.97;;;10.47;;
70545;SDS011;58098;51.680;5.134;2022-07-24T01:45:33;15.07;;;10.87;;
70545;SDS011;58098;51.680;5.134;2022-07-24T01:47:58;13.67;;;10.73;;
70545;SDS011;58098;51.680;5.134;2022-07-24T01:50:24;16.20;;;11.13;;
70545;SDS011;58098;51.680;5.134;2022-07-24T01:52:49;14.73;;;10.73;;
70545;SDS011;58098;51.680;5.134;2022-07-24T01:55:14;14.37;;;10.30;;
70545;SDS011;58098;51.680;5.134;2022-07-24T01:57:39;14.80;;;10.45;;
70545;SDS011;58098;51.680;5.134;2022-07-24T02:00:05;17.80;;;10.75;;
70545;SDS011;58098;51.680;5.134;2022-07-24T02:02:33;13.50;;;9.97;;
70545;SDS011;58098;51.680;5.134;2022-07-24T02:04:58;14.13;;;10.63;;
70545;SDS011;58098;51.680;5.134;2022-07-24T02:07:23;14.40;;;10.60;;
70545;SDS011;58098;51.680;5.134;2022-07-24T02:09:49;17.77;;;10.97;;
70545;SDS011;58098;51.680;5.134;2022-07-24T02:12:14;14.00;;;11.63;;
70545;SDS011;58098;51.680;5.134;2022-07-24T02:14:39;16.47;;;11.57;;
70545;SDS011;58098;51.680;5.134;2022-07-24T02:17:04;13.30;;;11.63;;
70545;SDS011;58098;51.680;5.134;2022-07-24T02:19:30;16.27;;;12.52;;
70545;SDS011;58098;51.680;5.134;2022-07-24T02:21:55;15.40;;;11.50;;
70545;SDS011;58098;51.680;5.134;2022-07-24T02:24:20;16.30;;;12.03;;
70545;SDS011;58098;51.680;5.134;2022-07-24T02:26:45;20.43;;;13.80;;
70545;SDS011;58098;51.680;5.134;2022-07-24T02:29:11;16.80;;;13.17;;
70545;SDS011;58098;51.680;5.134;2022-07-24T02:31:36;18.83;;;12.80;;
70545;SDS011;58098;51.680;5.134;2022-07-24T02:34:01;16.90;;;12.97;;
70545;SDS011;58098;51.680;5.134;2022-07-24T02:36:26;16.77;;;13.40;;
70545;SDS011;58098;51.680;5.134;2022-07-24T02:38:52;17.60;;;13.30;;
70545;SDS011;58098;51.680;5.134;2022-07-24T02:41:17;16.07;;;13.00;;
70545;SDS011;58098;51.680;5.134;2022-07-24T02:43:42;19.87;;;13.13;;
70545;SDS011;58098;51.680;5.134;2022-07-24T02:46:08;20.37;;;14.00;;
70545;SDS011;58098;51.680;5.134;2022-07-24T02:48:33;17.43;;;13.53;;
70545;SDS011;58098;51.680;5.134;2022-07-24T02:50:58;19.53;;;14.67;;
70545;SDS011;58098;51.680;5.134;2022-07-24T02:53:23;22.10;;;13.50;;
70545;SDS011;58098;51.680;5.134;2022-07-24T02:55:49;18.50;;;13.30;;
70545;SDS011;58098;51.680;5.134;2022-07-24T02:58:14;21.73;;;15.30;;
70545;SDS011;58098;51.680;5.134;2022-07-24T03:00:39;24.27;;;16.13;;
70545;SDS011;58098;51.680;5.134;2022-07-24T03:03:04;23.40;;;16.73;;
70545;SDS011;58098;51.680;5.134;2022-07-24T03:05:30;24.67;;;16.57;;
70545;SDS011;58098;51.680;5.134;2022-07-24T03:07:55;23.10;;;16.50;;
70545;SDS011;58098;51.680;5.134;2022-07-24T03:10:20;27.27;;;18.60;;
70545;SDS011;58098;51.680;5.134;2022-07-24T03:12:45;28.93;;;18.60;;
70545;SDS011;58098;51.680;5.134;2022-07-24T03:15:11;25.80;;;18.30;;
70545;SDS011;58098;51.680;5.134;2022-07-24T03:17:37;25.60;;;19.52;;
70545;SDS011;58098;51.680;5.134;2022-07-24T03:20:02;32.47;;;19.40;;
70545;SDS011;58098;51.680;5.134;2022-07-24T03:22:28;30.83;;;20.42;;
70545;SDS011;58098;51.680;5.134;2022-07-24T03:24:53;28.13;;;20.50;;
70545;SDS011;58098;51.680;5.134;2022-07-24T03:27:18;30.70;;;19.63;;
70545;SDS011;58098;51.680;5.134;2022-07-24T03:29:43;30.20;;;20.37;;
70545;SDS011;58098;51.680;5.134;2022-07-24T03:32:09;28.00;;;19.13;;
70545;SDS011;58098;51.680;5.134;2022-07-24T03:34:34;36.63;;;22.20;;
70545;SDS011;58098;51.680;5.134;2022-07-24T03:36:59;33.60;;;21.77;;
70545;SDS011;58098;51.680;5.134;2022-07-24T03:39:24;34.17;;;21.23;;
70545;SDS011;58098;51.680;5.134;2022-07-24T03:41:49;31.60;;;20.17;;
70545;SDS011;58098;51.680;5.134;2022-07-24T03:44:15;33.03;;;21.03;;
70545;SDS011;58098;51.680;5.134;2022-07-24T03:46:40;33.57;;;22.07;;
70545;SDS011;58098;51.680;5.134;2022-07-24T03:49:05;34.57;;;21.30;;
70545;SDS011;58098;51.680;5.134;2022-07-24T03:51:30;31.63;;;19.90;;
70545;SDS011;58098;51.680;5.134;2022-07-24T03:53:56;32.23;;;20.37;;
70545;SDS011;58098;51.680;5.134;2022-07-24T03:56:21;34.40;;;20.33;;
70545;SDS011;58098;51.680;5.134;2022-07-24T03:58:46;33.93;;;20.60;;
70545;SDS011;58098;51.680;5.134;2022-07-24T04:01:11;30.53;;;19.57;;
70545;SDS011;58098;51.680;5.134;2022-07-24T04:03:36;34.95;;;21.25;;
70545;SDS011;58098;51.680;5.134;2022-07-24T04:06:05;35.90;;;22.10;;
70545;SDS011;58098;51.680;5.134;2022-07-24T04:08:30;39.37;;;22.50;;
70545;SDS011;58098;51.680;5.134;2022-07-24T04:10:55;38.70;;;23.48;;
70545;SDS011;58098;51.680;5.134;2022-07-24T04:13:24;40.57;;;22.97;;
70545;SDS011;58098;51.680;5.134;2022-07-24T04:15:50;40.75;;;24.23;;
70545;SDS011;58098;51.680;5.134;2022-07-24T04:18:15;39.83;;;22.97;;
70545;SDS011;58098;51.680;5.134;2022-07-24T04:20:40;39.87;;;22.63;;
70545;SDS011;58098;51.680;5.134;2022-07-24T04:23:06;35.33;;;21.23;;
70545;SDS011;58098;51.680;5.134;2022-07-24T04:25:31;43.10;;;23.07;;
70545;SDS011;58098;51.680;5.134;2022-07-24T04:27:56;38.33;;;22.93;;
70545;SDS011;58098;51.680;5.134;2022-07-24T04:30:21;38.43;;;23.47;;
70545;SDS011;58098;51.680;5.134;2022-07-24T04:32:46;39.30;;;22.30;;
70545;SDS011;58098;51.680;5.134;2022-07-24T04:35:12;38.03;;;23.57;;
70545;SDS011;58098;51.680;5.134;2022-07-24T04:37:37;42.13;;;22.67;;
70545;SDS011;58098;51.680;5.134;2022-07-24T04:40:02;37.47;;;22.90;;
70545;SDS011;58098;51.680;5.134;2022-07-24T04:42:27;34.63;;;22.77;;
70545;SDS011;58098;51.680;5.134;2022-07-24T04:44:52;38.73;;;24.07;;
70545;SDS011;58098;51.680;5.134;2022-07-24T04:47:18;40.03;;;22.90;;
70545;SDS011;58098;51.680;5.134;2022-07-24T04:49:43;34.90;;;21.43;;
70545;SDS011;58098;51.680;5.134;2022-07-24T04:52:08;37.73;;;22.43;;
70545;SDS011;58098;51.680;5.134;2022-07-24T04:54:33;32.23;;;21.07;;
70545;SDS011;58098;51.680;5.134;2022-07-24T04:56:58;30.57;;;20.13;;
70545;SDS011;58098;51.680;5.134;2022-07-24T04:59:23;35.77;;;20.87;;
70545;SDS011;58098;51.680;5.134;2022-07-24T05:01:49;32.23;;;20.97;;
70545;SDS011;58098;51.680;5.134;2022-07-24T05:04:14;31.60;;;19.03;;
70545;SDS011;58098;51.680;5.134;2022-07-24T05:06:39;31.17;;;20.00;;
70545;SDS011;58098;51.680;5.134;2022-07-24T05:09:04;33.70;;;19.87;;
70545;SDS011;58098;51.680;5.134;2022-07-24T05:11:29;31.23;;;18.33;;
70545;SDS011;58098;51.680;5.134;2022-07-24T05:13:55;31.77;;;20.70;;
70545;SDS011;58098;51.680;5.134;2022-07-24T05:16:20;32.23;;;20.10;;
70545;SDS011;58098;51.680;5.134;2022-07-24T05:18:45;31.20;;;19.67;;
70545;SDS011;58098;51.680;5.134;2022-07-24T05:21:10;33.20;;;19.73;;
70545;SDS011;58098;51.680;5.134;2022-07-24T05:23:35;32.53;;;20.30;;
70545;SDS011;58098;51.680;5.134;2022-07-24T05:26:01;29.43;;;19.53;;
70545;SDS011;58098;51.680;5.134;2022-07-24T05:28:26;32.97;;;20.83;;
70545;SDS011;58098;51.680;5.134;2022-07-24T05:30:51;37.60;;;21.97;;
70545;SDS011;58098;51.680;5.134;2022-07-24T05:33:16;33.07;;;21.30;;
70545;SDS011;58098;51.680;5.134;2022-07-24T05:35:41;33.97;;;21.33;;
70545;SDS011;58098;51.680;5.134;2022-07-24T05:38:07;35.83;;;22.63;;
70545;SDS011;58098;51.680;5.134;2022-07-24T05:40:32;31.20;;;21.43;;
70545;SDS011;58098;51.680;5.134;2022-07-24T05:42:57;30.87;;;20.20;;
70545;SDS011;58098;51.680;5.134;2022-07-24T05:45:22;35.10;;;21.60;;
70545;SDS011;58098;51.680;5.134;2022-07-24T05:47:48;31.93;;;21.33;;
70545;SDS011;58098;51.680;5.134;2022-07-24T05:50:13;29.17;;;19.10;;
70545;SDS011;58098;51.680;5.134;2022-07-24T05:52:39;31.37;;;19.93;;
70545;SDS011;58098;51.680;5.134;2022-07-24T05:55:04;32.00;;;20.70;;
70545;SDS011;58098;51.680;5.134;2022-07-24T05:57:30;31.65;;;21.25;;
70545;SDS011;58098;51.680;5.134;2022-07-24T05:59:55;36.83;;;22.40;;
70545;SDS011;58098;51.680;5.134;2022-07-24T06:02:20;35.10;;;22.80;;
70545;SDS011;58098;51.680;5.134;2022-07-24T06:04:45;35.50;;;21.43;;
70545;SDS011;58098;51.680;5.134;2022-07-24T06:07:10;33.53;;;22.60;;
70545;SDS011;58098;51.680;5.134;2022-07-24T06:09:36;36.90;;;22.63;;
70545;SDS011;58098;51.680;5.134;2022-07-24T06:12:02;30.23;;;20.50;;
70545;SDS011;58098;51.680;5.134;2022-07-24T06:14:27;32.55;;;20.70;;
70545;SDS011;58098;51.680;5.134;2022-07-24T06:16:52;38.30;;;21.30;;
70545;SDS011;58098;51.680;5.134;2022-07-24T06:19:18;34.83;;;20.70;;
70545;SDS011;58098;51.680;5.134;2022-07-24T06:21:43;29.20;;;18.83;;
70545;SDS011;58098;51.680;5.134;2022-07-24T06:24:08;29.27;;;18.90;;
70545;SDS011;58098;51.680;5.134;2022-07-24T06:26:33;31.13;;;19.77;;
70545;SDS011;58098;51.680;5.134;2022-07-24T06:28:58;29.23;;;17.93;;
70545;SDS011;58098;51.680;5.134;2022-07-24T06:31:24;23.33;;;14.55;;
70545;SDS011;58098;51.680;5.134;2022-07-24T06:33:49;22.70;;;14.47;;
70545;SDS011;58098;51.680;5.134;2022-07-24T06:36:14;22.47;;;14.97;;
70545;SDS011;58098;51.680;5.134;2022-07-24T06:38:39;21.43;;;14.03;;
70545;SDS011;58098;51.680;5.134;2022-07-24T06:41:04;22.90;;;13.73;;
70545;SDS011;58098;51.680;5.134;2022-07-24T06:43:30;19.50;;;12.80;;
70545;SDS011;58098;51.680;5.134;2022-07-24T06:45:55;19.60;;;13.37;;
70545;SDS011;58098;51.680;5.134;2022-07-24T06:48:20;16.57;;;11.60;;
70545;SDS011;58098;51.680;5.134;2022-07-24T06:50:45;18.13;;;11.80;;
70545;SDS011;58098;51.680;5.134;2022-07-24T06:53:11;18.05;;;11.60;;
70545;SDS011;58098;51.680;5.134;2022-07-24T06:55:36;17.63;;;10.83;;
70545;SDS011;58098;51.680;5.134;2022-07-24T06:58:01;16.80;;;11.07;;
70545;SDS011;58098;51.680;5.134;2022-07-24T07:00:26;16.97;;;10.07;;
70545;SDS011;58098;51.680;5.134;2022-07-24T07:02:51;19.63;;;9.80;;
70545;SDS011;58098;51.680;5.134;2022-07-24T07:05:17;13.37;;;8.67;;
70545;SDS011;58098;51.680;5.134;2022-07-24T07:07:43;13.38;;;8.00;;
70545;SDS011;58098;51.680;5.134;2022-07-24T07:10:09;15.30;;;8.40;;
70545;SDS011;58098;51.680;5.134;2022-07-24T07:12:34;11.63;;;7.47;;
70545;SDS011;58098;51.680;5.134;2022-07-24T07:14:59;12.40;;;7.60;;
70545;SDS011;58098;51.680;5.134;2022-07-24T07:17:25;11.57;;;7.63;;
70545;SDS011;58098;51.680;5.134;2022-07-24T07:19:50;10.10;;;7.30;;
70545;SDS011;58098;51.680;5.134;2022-07-24T07:22:15;8.95;;;6.95;;
70545;SDS011;58098;51.680;5.134;2022-07-24T07:24:40;11.27;;;8.00;;
70545;SDS011;58098;51.680;5.134;2022-07-24T07:27:05;11.97;;;7.20;;
70545;SDS011;58098;51.680;5.134;2022-07-24T07:29:31;9.30;;;6.55;;
70545;SDS011;58098;51.680;5.134;2022-07-24T07:31:56;10.87;;;7.37;;
70545;SDS011;58098;51.680;5.134;2022-07-24T07:34:21;11.40;;;7.67;;
70545;SDS011;58098;51.680;5.134;2022-07-24T07:36:46;7.60;;;6.30;;
70545;SDS011;58098;51.680;5.134;2022-07-24T07:39:11;10.00;;;6.50;;
70545;SDS011;58098;51.680;5.134;2022-07-24T07:41:36;9.20;;;6.45;;
70545;SDS011;58098;51.680;5.134;2022-07-24T07:44:02;9.95;;;6.00;;
70545;SDS011;58098;51.680;5.134;2022-07-24T07:46:27;7.30;;;5.63;;
70545;SDS011;58098;51.680;5.134;2022-07-24T07:48:53;10.00;;;5.87;;
70545;SDS011;58098;51.680;5.134;2022-07-24T07:51:18;7.23;;;5.53;;
70545;SDS011;58098;51.680;5.134;2022-07-24T07:53:43;8.90;;;5.97;;
70545;SDS011;58098;51.680;5.134;2022-07-24T07:56:09;6.80;;;5.37;;
70545;SDS011;58098;51.680;5.134;2022-07-24T07:58:34;8.83;;;5.23;;
70545;SDS011;58098;51.680;5.134;2022-07-24T08:01:00;7.70;;;5.20;;
70545;SDS011;58098;51.680;5.134;2022-07-24T08:03:25;9.00;;;4.67;;
70545;SDS011;58098;51.680;5.134;2022-07-24T08:05:50;8.07;;;4.77;;
70545;SDS011;58098;51.680;5.134;2022-07-24T08:11:18;7.47;;;4.82;;
70545;SDS011;58098;51.680;5.134;2022-07-24T08:13:43;8.07;;;5.03;;
70545;SDS011;58098;51.680;5.134;2022-07-24T08:16:08;6.37;;;5.00;;
70545;SDS011;58098;51.680;5.134;2022-07-24T08:18:34;9.33;;;4.57;;
70545;SDS011;58098;51.680;5.134;2022-07-24T08:20:59;6.17;;;4.70;;
70545;SDS011;58098;51.680;5.134;2022-07-24T08:23:24;6.33;;;4.80;;
70545;SDS011;58098;51.680;5.134;2022-07-24T08:25:49;6.13;;;4.50;;
70545;SDS011;58098;51.680;5.134;2022-07-24T08:28:14;6.93;;;4.03;;
70545;SDS011;58098;51.680;5.134;2022-07-24T08:30:40;5.03;;;3.73;;
70545;SDS011;58098;51.680;5.134;2022-07-24T08:33:05;8.85;;;3.88;;
70545;SDS011;58098;51.680;5.134;2022-07-24T08:35:30;4.63;;;3.33;;
70545;SDS011;58098;51.680;5.134;2022-07-24T08:37:56;4.43;;;3.10;;
70545;SDS011;58098;51.680;5.134;2022-07-24T08:40:21;4.00;;;3.53;;
70545;SDS011;58098;51.680;5.134;2022-07-24T08:42:47;7.10;;;4.00;;
70545;SDS011;58098;51.680;5.134;2022-07-24T08:45:12;4.80;;;3.65;;
70545;SDS011;58098;51.680;5.134;2022-07-24T08:47:40;5.50;;;3.97;;
70545;SDS011;58098;51.680;5.134;2022-07-24T08:50:06;4.77;;;3.60;;
70545;SDS011;58098;51.680;5.134;2022-07-24T08:52:31;5.00;;;3.47;;
70545;SDS011;58098;51.680;5.134;2022-07-24T08:54:58;4.50;;;3.58;;
70545;SDS011;58098;51.680;5.134;2022-07-24T08:57:23;5.50;;;3.50;;
70545;SDS011;58098;51.680;5.134;2022-07-24T08:59:48;7.43;;;3.50;;
70545;SDS011;58098;51.680;5.134;2022-07-24T09:02:13;5.10;;;3.37;;
70545;SDS011;58098;51.680;5.134;2022-07-24T09:04:40;4.43;;;3.30;;
70545;SDS011;58098;51.680;5.134;2022-07-24T09:07:07;6.23;;;3.00;;
70545;SDS011;58098;51.680;5.134;2022-07-24T09:09:33;6.40;;;3.30;;
70545;SDS011;58098;51.680;5.134;2022-07-24T09:12:08;6.50;;;3.63;;
70545;SDS011;58098;51.680;5.134;2022-07-24T09:14:35;4.97;;;3.30;;
70545;SDS011;58098;51.680;5.134;2022-07-24T09:17:02;4.30;;;3.47;;
70545;SDS011;58098;51.680;5.134;2022-07-24T09:19:28;5.60;;;3.60;;
70545;SDS011;58098;51.680;5.134;2022-07-24T09:21:53;4.77;;;2.80;;
70545;SDS011;58098;51.680;5.134;2022-07-24T09:24:19;4.17;;;2.97;;
70545;SDS011;58098;51.680;5.134;2022-07-24T09:29:11;4.67;;;3.70;;
70545;SDS011;58098;51.680;5.134;2022-07-24T09:34:38;5.65;;;3.47;;
70545;SDS011;58098;51.680;5.134;2022-07-24T09:37:04;4.40;;;2.90;;
70545;SDS011;58098;51.680;5.134;2022-07-24T09:39:30;3.13;;;2.50;;
70545;SDS011;58098;51.680;5.134;2022-07-24T09:41:57;3.92;;;2.88;;
70545;SDS011;58098;51.680;5.134;2022-07-24T09:44:22;5.30;;;3.20;;
70545;SDS011;58098;51.680;5.134;2022-07-24T09:47:00;3.53;;;2.90;;
70545;SDS011;58098;51.680;5.134;2022-07-24T09:49:26;3.80;;;2.90;;
70545;SDS011;58098;51.680;5.134;2022-07-24T09:54:36;3.40;;;2.87;;
70545;SDS011;58098;51.680;5.134;2022-07-24T09:57:14;3.78;;;2.70;;
70545;SDS011;58098;51.680;5.134;2022-07-24T09:59:40;4.68;;;2.90;;
70545;SDS011;58098;51.680;5.134;2022-07-24T10:02:05;2.53;;;2.30;;
70545;SDS011;58098;51.680;5.134;2022-07-24T10:04:32;4.57;;;2.47;;
70545;SDS011;58098;51.680;5.134;2022-07-24T10:06:59;5.25;;;3.05;;
70545;SDS011;58098;51.680;5.134;2022-07-24T10:09:27;5.43;;;2.60;;
70545;SDS011;58098;51.680;5.134;2022-07-24T10:11:53;5.78;;;2.95;;
70545;SDS011;58098;51.680;5.134;2022-07-24T10:14:21;3.50;;;2.87;;
70545;SDS011;58098;51.680;5.134;2022-07-24T10:16:46;4.22;;;2.50;;
70545;SDS011;58098;51.680;5.134;2022-07-24T10:19:19;4.23;;;2.50;;
70545;SDS011;58098;51.680;5.134;2022-07-24T10:21:52;4.20;;;2.55;;
70545;SDS011;58098;51.680;5.134;2022-07-24T10:24:30;3.80;;;2.90;;
70545;SDS011;58098;51.680;5.134;2022-07-24T10:27:00;3.90;;;2.60;;
70545;SDS011;58098;51.680;5.134;2022-07-24T10:29:26;3.92;;;2.83;;
70545;SDS011;58098;51.680;5.134;2022-07-24T10:31:54;3.33;;;2.47;;
70545;SDS011;58098;51.680;5.134;2022-07-24T10:34:33;4.28;;;2.53;;
70545;SDS011;58098;51.680;5.134;2022-07-24T10:37:15;3.65;;;2.50;;
70545;SDS011;58098;51.680;5.134;2022-07-24T10:42:19;5.85;;;2.78;;
70545;SDS011;58098;51.680;5.134;2022-07-24T10:44:44;3.43;;;2.27;;
70545;SDS011;58098;51.680;5.134;2022-07-24T10:47:30;2.57;;;2.30;;
70545;SDS011;58098;51.680;5.134;2022-07-24T10:49:57;2.63;;;2.30;;
70545;SDS011;58098;51.680;5.134;2022-07-24T10:52:24;4.20;;;2.67;;
70545;SDS011;58098;51.680;5.134;2022-07-24T11:00:34;2.67;;;2.42;;
70545;SDS011;58098;51.680;5.134;2022-07-24T11:03:04;4.50;;;2.20;;
70545;SDS011;58098;51.680;5.134;2022-07-24T11:13:38;3.92;;;2.33;;
70545;SDS011;58098;51.680;5.134;2022-07-24T11:18:35;4.28;;;2.65;;
70545;SDS011;58098;51.680;5.134;2022-07-24T11:21:00;3.00;;;2.10;;
70545;SDS011;58098;51.680;5.134;2022-07-24T11:23:25;2.50;;;2.30;;
70545;SDS011;58098;51.680;5.134;2022-07-24T11:25:50;4.27;;;2.20;;
70545;SDS011;58098;51.680;5.134;2022-07-24T11:28:16;2.90;;;2.27;;
70545;SDS011;58098;51.680;5.134;2022-07-24T11:30:42;2.88;;;2.20;;
70545;SDS011;58098;51.680;5.134;2022-07-24T11:33:09;5.37;;;2.40;;
70545;SDS011;58098;51.680;5.134;2022-07-24T11:35:35;4.85;;;2.60;;
70545;SDS011;58098;51.680;5.134;2022-07-24T11:38:01;2.75;;;2.45;;
70545;SDS011;58098;51.680;5.134;2022-07-24T11:40:27;4.32;;;2.25;;
70545;SDS011;58098;51.680;5.134;2022-07-24T11:42:59;2.43;;;2.23;;
70545;SDS011;58098;51.680;5.134;2022-07-24T11:45:25;3.50;;;2.30;;
70545;SDS011;58098;51.680;5.134;2022-07-24T11:47:50;3.23;;;2.20;;
70545;SDS011;58098;51.680;5.134;2022-07-24T11:50:19;3.97;;;2.13;;
70545;SDS011;58098;51.680;5.134;2022-07-24T11:52:44;3.28;;;2.28;;
70545;SDS011;58098;51.680;5.134;2022-07-24T11:55:14;2.70;;;1.90;;
70545;SDS011;58098;51.680;5.134;2022-07-24T11:57:40;4.80;;;2.10;;
70545;SDS011;58098;51.680;5.134;2022-07-24T12:00:07;2.75;;;2.10;;
70545;SDS011;58098;51.680;5.134;2022-07-24T12:02:34;3.40;;;2.13;;
70545;SDS011;58098;51.680;5.134;2022-07-24T12:05:00;2.10;;;1.80;;
70545;SDS011;58098;51.680;5.134;2022-07-24T12:07:26;5.90;;;1.90;;
70545;SDS011;58098;51.680;5.134;2022-07-24T12:10:00;1.92;;;1.70;;
70545;SDS011;58098;51.680;5.134;2022-07-24T12:12:26;2.85;;;2.15;;
70545;SDS011;58098;51.680;5.134;2022-07-24T12:17:28;4.00;;;1.90;;
70545;SDS011;58098;51.680;5.134;2022-07-24T12:19:54;2.93;;;2.13;;
70545;SDS011;58098;51.680;5.134;2022-07-24T12:22:20;3.08;;;2.13;;
70545;SDS011;58098;51.680;5.134;2022-07-24T12:24:45;3.03;;;2.20;;
70545;SDS011;58098;51.680;5.134;2022-07-24T12:27:11;2.43;;;1.80;;
70545;SDS011;58098;51.680;5.134;2022-07-24T12:29:41;2.85;;;2.30;;
70545;SDS011;58098;51.680;5.134;2022-07-24T12:32:14;5.60;;;2.40;;
70545;SDS011;58098;51.680;5.134;2022-07-24T12:34:40;4.18;;;2.22;;
70545;SDS011;58098;51.680;5.134;2022-07-24T12:37:15;2.28;;;2.00;;
70545;SDS011;58098;51.680;5.134;2022-07-24T12:39:47;2.00;;;1.90;;
70545;SDS011;58098;51.680;5.134;2022-07-24T12:42:13;3.60;;;2.07;;
70545;SDS011;58098;51.680;5.134;2022-07-24T12:44:42;2.25;;;2.00;;
70545;SDS011;58098;51.680;5.134;2022-07-24T12:47:12;2.77;;;2.20;;
70545;SDS011;58098;51.680;5.134;2022-07-24T12:49:41;4.15;;;2.20;;
70545;SDS011;58098;51.680;5.134;2022-07-24T12:52:18;3.45;;;2.00;;
70545;SDS011;58098;51.680;5.134;2022-07-24T12:54:45;3.60;;;2.00;;
70545;SDS011;58098;51.680;5.134;2022-07-24T12:57:11;4.10;;;2.30;;
70545;SDS011;58098;51.680;5.134;2022-07-24T12:59:37;3.37;;;2.10;;
70545;SDS011;58098;51.680;5.134;2022-07-24T13:02:12;3.85;;;2.90;;
70545;SDS011;58098;51.680;5.134;2022-07-24T13:04:40;4.35;;;2.20;;
70545;SDS011;58098;51.680;5.134;2022-07-24T13:07:07;3.25;;;2.13;;
70545;SDS011;58098;51.680;5.134;2022-07-24T13:09:32;3.90;;;2.35;;
70545;SDS011;58098;51.680;5.134;2022-07-24T13:11:57;2.30;;;2.10;;
70545;SDS011;58098;51.680;5.134;2022-07-24T13:14:25;3.60;;;2.30;;
70545;SDS011;58098;51.680;5.134;2022-07-24T13:16:51;2.20;;;1.77;;
70545;SDS011;58098;51.680;5.134;2022-07-24T13:19:16;2.35;;;1.70;;
70545;SDS011;58098;51.680;5.134;2022-07-24T13:21:42;5.38;;;2.05;;
70545;SDS011;58098;51.680;5.134;2022-07-24T13:24:08;5.17;;;2.23;;
70545;SDS011;58098;51.680;5.134;2022-07-24T13:26:33;2.13;;;1.80;;
70545;SDS011;58098;51.680;5.134;2022-07-24T13:28:59;2.78;;;2.13;;
70545;SDS011;58098;51.680;5.134;2022-07-24T13:31:25;3.30;;;2.27;;
70545;SDS011;58098;51.680;5.134;2022-07-24T13:33:50;2.47;;;2.23;;
70545;SDS011;58098;51.680;5.134;2022-07-24T13:36:16;4.43;;;2.03;;
70545;SDS011;58098;51.680;5.134;2022-07-24T13:38:42;3.25;;;2.28;;
70545;SDS011;58098;51.680;5.134;2022-07-24T13:41:07;3.70;;;2.30;;
70545;SDS011;58098;51.680;5.134;2022-07-24T13:43:32;2.57;;;2.30;;
70545;SDS011;58098;51.680;5.134;2022-07-24T13:45:57;6.60;;;2.00;;
70545;SDS011;58098;51.680;5.134;2022-07-24T13:48:23;4.33;;;2.30;;
70545;SDS011;58098;51.680;5.134;2022-07-24T13:50:48;3.57;;;2.03;;
70545;SDS011;58098;51.680;5.134;2022-07-24T13:53:14;3.90;;;2.30;;
70545;SDS011;58098;51.680;5.134;2022-07-24T13:55:40;2.97;;;2.10;;
70545;SDS011;58098;51.680;5.134;2022-07-24T13:58:05;2.30;;;2.10;;
70545;SDS011;58098;51.680;5.134;2022-07-24T14:00:30;3.03;;;1.90;;
70545;SDS011;58098;51.680;5.134;2022-07-24T14:02:55;2.30;;;2.10;;
70545;SDS011;58098;51.680;5.134;2022-07-24T14:05:21;2.07;;;1.80;;
70545;SDS011;58098;51.680;5.134;2022-07-24T14:07:46;2.95;;;1.80;;
70545;SDS011;58098;51.680;5.134;2022-07-24T14:10:11;2.35;;;2.15;;
70545;SDS011;58098;51.680;5.134;2022-07-24T14:12:37;2.60;;;1.87;;
70545;SDS011;58098;51.680;5.134;2022-07-24T14:15:02;4.00;;;1.95;;
70545;SDS011;58098;51.680;5.134;2022-07-24T14:17:27;2.40;;;1.90;;
70545;SDS011;58098;51.680;5.134;2022-07-24T14:19:52;2.40;;;2.20;;
70545;SDS011;58098;51.680;5.134;2022-07-24T14:22:18;3.57;;;1.90;;
70545;SDS011;58098;51.680;5.134;2022-07-24T14:24:43;2.27;;;2.10;;
70545;SDS011;58098;51.680;5.134;2022-07-24T14:27:08;2.63;;;1.90;;
70545;SDS011;58098;51.680;5.134;2022-07-24T14:29:33;5.33;;;2.13;;
70545;SDS011;58098;51.680;5.134;2022-07-24T14:31:58;3.00;;;2.17;;
70545;SDS011;58098;51.680;5.134;2022-07-24T14:34:24;3.23;;;2.20;;
70545;SDS011;58098;51.680;5.134;2022-07-24T14:36:49;2.50;;;2.30;;
70545;SDS011;58098;51.680;5.134;2022-07-24T14:39:14;2.40;;;2.20;;
70545;SDS011;58098;51.680;5.134;2022-07-24T14:41:39;2.67;;;2.40;;
70545;SDS011;58098;51.680;5.134;2022-07-24T14:44:04;3.10;;;2.10;;
70545;SDS011;58098;51.680;5.134;2022-07-24T14:46:30;3.33;;;2.07;;
70545;SDS011;58098;51.680;5.134;2022-07-24T14:48:55;4.67;;;2.50;;
70545;SDS011;58098;51.680;5.134;2022-07-24T14:51:20;3.60;;;2.10;;
70545;SDS011;58098;51.680;5.134;2022-07-24T14:53:45;5.00;;;2.23;;
70545;SDS011;58098;51.680;5.134;2022-07-24T14:56:11;4.03;;;2.10;;
70545;SDS011;58098;51.680;5.134;2022-07-24T14:58:36;2.23;;;2.10;;
70545;SDS011;58098;51.680;5.134;2022-07-24T15:01:01;5.07;;;2.20;;